Bridgwater, United Kingdom
Current Conditions -  °F | °C
As of 7:50 PM on Thursday 27 Nov 2014 (Local Time) from EGDY Reporting Station
Haze Haze  
Wind Chill:   Ceiling: 25000
Heat Index:   Visibility: 3mi
Dew Point:   Wind: 10mph
Humidity: 93%   Direction: 100°E
Pressure: 29.5"   Gusts: NA
Location:  51.13°N, 3°W
Report Text: EGDY 271950Z 10009KT 5000 BR FEW020 BKN250 09/08 Q0999 WHT BECMG 4000 BR GRN
Loading
Personal Weather Stations






























Interactive Weather Map New forecast layout! Learn more

10-Day Weather Forecast

Advertisements
Track Severe Weather on mobile